Time;durP1;ratioP1;P1;durP2;ratioP2;P2;SDS_P1;SDS_P2;PMS_P1;PMS_P2;Temp;Humidity;BMP_temperature;BMP_pressure;BME280_temperature;BME280_humidity;BME280_pressure;Samples;Min_cycle;Max_cycle;Signal;HPM_P1;HPM_P2
2023/06/18 00:02:23;;;;;;;5.90;4.45;;;;;28.30;101236.00;;;;5088991;28;20195;-75
2023/06/18 00:04:50;;;;;;;5.03;4.13;;;;;28.20;101235.00;;;;5089677;28;20206;-75
2023/06/18 00:07:19;;;;;;;7.93;4.50;;;;;28.20;101235.00;;;;5088453;28;20194;-75
2023/06/18 00:09:46;;;;;;;6.40;4.43;;;;;28.20;101243.00;;;;5088340;28;20228;-76
2023/06/18 00:12:13;;;;;;;5.22;4.18;;;;;28.20;101246.00;;;;5090207;28;20209;-75
2023/06/18 00:14:41;;;;;;;6.55;4.80;;;;;28.20;101239.00;;;;5072007;28;20201;-73
2023/06/18 00:17:08;;;;;;;7.38;4.50;;;;;28.10;101244.00;;;;5069554;28;20187;-75
2023/06/18 00:19:35;;;;;;;6.50;4.45;;;;;28.10;101243.00;;;;5069260;28;20198;-74
2023/06/18 00:22:03;;;;;;;6.70;4.85;;;;;28.10;101235.00;;;;5089274;28;20198;-75
2023/06/18 00:24:31;;;;;;;7.80;4.75;;;;;28.10;101237.00;;;;5087743;28;20677;-75
2023/06/18 00:26:59;;;;;;;5.10;4.50;;;;;28.10;101239.00;;;;5089227;28;20664;-75
2023/06/18 00:29:29;;;;;;;7.80;4.55;;;;;28.10;101237.00;;;;5090988;28;20230;-75
2023/06/18 00:31:56;;;;;;;4.43;4.03;;;;;28.10;101234.00;;;;5070416;28;20242;-75
2023/06/18 00:34:28;;;;;;;4.90;4.13;;;;;28.00;101234.00;;;;5069435;28;20198;-75
2023/06/18 00:36:57;;;;;;;5.88;3.97;;;;;28.00;101229.00;;;;5085519;28;20220;-75
2023/06/18 00:39:24;;;;;;;4.55;4.03;;;;;28.00;101231.00;;;;5088174;28;20198;-76
2023/06/18 00:41:53;;;;;;;8.02;4.80;;;;;28.00;101228.00;;;;5089151;28;20209;-75
2023/06/18 00:44:21;;;;;;;5.50;3.75;;;;;28.00;101220.00;;;;5088941;28;20186;-75
2023/06/18 00:46:49;;;;;;;7.43;4.88;;;;;28.00;101220.00;;;;5089621;28;20197;-75
2023/06/18 00:49:18;;;;;;;4.32;3.92;;;;;27.90;101222.00;;;;5072430;28;20304;-76
2023/06/18 00:51:46;;;;;;;7.20;4.53;;;;;27.90;101221.00;;;;5087234;28;20204;-75
2023/06/18 00:54:15;;;;;;;8.75;4.40;;;;;27.90;101220.00;;;;5088531;28;20209;-75
2023/06/18 00:56:50;;;;;;;5.03;4.53;;;;;27.80;101212.00;;;;5088062;28;20279;-75
2023/06/18 00:59:23;;;;;;;7.68;4.43;;;;;27.80;101219.00;;;;5087729;28;20731;-75
2023/06/18 01:01:52;;;;;;;4.80;4.40;;;;;27.80;101206.00;;;;5088620;28;20195;-76
2023/06/18 01:04:20;;;;;;;5.45;4.63;;;;;27.80;101212.00;;;;5087244;28;20210;-75
2023/06/18 01:06:51;;;;;;;5.40;4.53;;;;;27.70;101213.00;;;;5087791;28;20210;-75
2023/06/18 01:09:21;;;;;;;7.22;4.80;;;;;27.70;101206.00;;;;5087910;28;20244;-75
2023/06/18 01:11:51;;;;;;;5.03;4.50;;;;;27.70;101208.00;;;;5086109;28;20635;-74
2023/06/18 01:14:21;;;;;;;6.18;4.43;;;;;27.60;101215.00;;;;5085719;28;20198;-75
2023/06/18 01:16:51;;;;;;;8.60;4.55;;;;;27.60;101216.00;;;;5087729;28;20221;-75
2023/06/18 01:19:33;;;;;;;4.78;4.05;;;;;27.50;101209.00;;;;5087364;28;20244;-74
2023/06/18 01:22:08;;;;;;;8.63;4.45;;;;;27.50;101205.00;;;;5078985;28;20282;-76
2023/06/18 01:24:38;;;;;;;5.47;4.57;;;;;27.60;101205.00;;;;5086389;28;20197;-75
2023/06/18 01:27:08;;;;;;;4.60;4.13;;;;;27.50;101204.00;;;;5084226;28;20205;-74
2023/06/18 01:29:39;;;;;;;7.82;4.57;;;;;27.50;101200.00;;;;5075805;28;20218;-75
2023/06/18 01:32:07;;;;;;;5.45;4.28;;;;;27.50;101198.00;;;;5070542;28;20238;-75
2023/06/18 01:34:38;;;;;;;7.43;4.63;;;;;27.50;101192.00;;;;5087411;28;20201;-75
2023/06/18 01:37:16;;;;;;;4.57;4.15;;;;;27.40;101201.00;;;;5088074;28;20565;-74
2023/06/18 01:39:53;;;;;;;4.65;3.97;;;;;27.30;101193.00;;;;5070127;28;20195;-74
2023/06/18 01:42:23;;;;;;;6.38;4.90;;;;;27.40;101194.00;;;;5075779;28;20202;-74
2023/06/18 01:44:55;;;;;;;5.88;4.93;;;;;27.30;101189.00;;;;5087094;28;20202;-75
2023/06/18 01:47:26;;;;;;;7.68;4.93;;;;;27.30;101191.00;;;;5087274;28;20243;-74
2023/06/18 01:49:56;;;;;;;5.80;4.22;;;;;27.30;101197.00;;;;5087150;28;20222;-74
2023/06/18 01:52:25;;;;;;;6.55;4.70;;;;;27.20;101193.00;;;;5088044;28;20199;-75
2023/06/18 01:54:53;;;;;;;8.85;4.32;;;;;27.20;101183.00;;;;5086852;28;20198;-75
2023/06/18 01:57:21;;;;;;;4.78;3.97;;;;;27.20;101191.00;;;;5068052;28;20199;-75
2023/06/18 01:59:51;;;;;;;5.53;4.15;;;;;27.20;101191.00;;;;5071779;28;20195;-75
2023/06/18 02:02:21;;;;;;;5.15;4.65;;;;;27.10;101182.00;;;;5088234;28;20898;-75
2023/06/18 02:04:48;;;;;;;4.50;4.03;;;;;27.10;101181.00;;;;5089112;28;20206;-75
2023/06/18 02:07:16;;;;;;;4.90;4.30;;;;;27.10;101177.00;;;;5091149;28;20190;-75
2023/06/18 02:09:43;;;;;;;7.10;4.40;;;;;27.10;101176.00;;;;5090449;28;20225;-75
2023/06/18 02:12:11;;;;;;;4.75;3.78;;;;;27.00;101182.00;;;;5085737;28;20202;-76
2023/06/18 02:14:39;;;;;;;4.22;3.83;;;;;27.00;101183.00;;;;5089855;28;20203;-76
2023/06/18 02:17:06;;;;;;;5.15;4.65;;;;;27.00;101168.00;;;;5091539;28;20198;-75
2023/06/18 02:19:35;;;;;;;4.60;4.00;;;;;27.00;101164.00;;;;5070781;28;20225;-75
2023/06/18 02:22:03;;;;;;;4.85;4.35;;;;;27.00;101172.00;;;;5088848;28;20202;-75
2023/06/18 02:24:31;;;;;;;4.68;3.88;;;;;27.00;101165.00;;;;5090897;28;20569;-76
2023/06/18 02:26:58;;;;;;;4.90;3.80;;;;;26.90;101167.00;;;;5091669;28;20194;-75
2023/06/18 02:29:26;;;;;;;3.63;3.33;;;;;26.90;101162.00;;;;5095243;28;20238;-75
2023/06/18 02:31:53;;;;;;;8.13;3.95;;;;;26.90;101166.00;;;;5070987;28;20700;-75
2023/06/18 02:34:20;;;;;;;6.70;4.15;;;;;26.90;101166.00;;;;5090240;28;20198;-75
2023/06/18 02:36:49;;;;;;;4.03;3.72;;;;;26.80;101166.00;;;;5090577;28;20190;-75
2023/06/18 02:39:17;;;;;;;5.03;4.13;;;;;26.80;101166.00;;;;5090778;28;20213;-75
2023/06/18 02:41:45;;;;;;;4.65;3.95;;;;;26.80;101164.00;;;;5090835;28;20656;-75
2023/06/18 02:44:12;;;;;;;4.60;3.88;;;;;26.80;101164.00;;;;5090432;28;20210;-75
2023/06/18 02:46:40;;;;;;;4.07;3.38;;;;;26.80;101165.00;;;;5081891;28;20206;-75
2023/06/18 02:49:07;;;;;;;5.00;3.28;;;;;26.70;101164.00;;;;5070279;28;20227;-75
2023/06/18 02:51:34;;;;;;;4.20;3.42;;;;;26.70;101159.00;;;;5074563;28;20202;-75
2023/06/18 02:54:03;;;;;;;6.85;3.90;;;;;26.70;101149.00;;;;5089990;28;20206;-75
2023/06/18 02:56:30;;;;;;;5.13;4.10;;;;;26.70;101153.00;;;;5089595;28;20199;-75
2023/06/18 02:58:58;;;;;;;5.60;4.07;;;;;26.70;101151.00;;;;5090481;28;20198;-75
2023/06/18 03:01:26;;;;;;;5.35;3.38;;;;;26.70;101151.00;;;;5087828;28;20240;-75
2023/06/18 03:03:54;;;;;;;6.93;3.88;;;;;26.70;101153.00;;;;5083635;28;20210;-75
2023/06/18 03:06:23;;;;;;;4.45;3.33;;;;;26.60;101150.00;;;;5089318;28;20279;-75
2023/06/18 03:08:50;;;;;;;6.55;3.92;;;;;26.60;101154.00;;;;5089712;28;20215;-75
2023/06/18 03:11:19;;;;;;;5.05;3.60;;;;;26.60;101149.00;;;;5089533;28;20205;-75
2023/06/18 03:13:49;;;;;;;3.80;3.30;;;;;26.60;101141.00;;;;5088364;28;20199;-75
2023/06/18 03:16:17;;;;;;;4.85;3.63;;;;;26.60;101143.00;;;;5089304;28;20281;-74
2023/06/18 03:18:44;;;;;;;5.03;3.35;;;;;26.60;101150.00;;;;5091529;28;20195;-75
2023/06/18 03:21:11;;;;;;;8.13;3.80;;;;;26.60;101148.00;;;;5085153;28;20746;-75
2023/06/18 03:23:39;;;;;;;5.28;4.07;;;;;26.50;101142.00;;;;5080804;28;20206;-76
2023/06/18 03:26:06;;;;;;;4.72;3.42;;;;;26.50;101148.00;;;;5089535;28;20197;-75
2023/06/18 03:28:35;;;;;;;5.60;4.22;;;;;26.50;101146.00;;;;5088359;28;20194;-75
2023/06/18 03:31:02;;;;;;;4.63;3.75;;;;;26.50;101149.00;;;;5088669;28;20226;-75
2023/06/18 03:33:31;;;;;;;6.40;3.83;;;;;26.50;101150.00;;;;5088621;28;20202;-75
2023/06/18 03:36:00;;;;;;;5.90;3.90;;;;;26.50;101149.00;;;;5092419;28;20208;-75
2023/06/18 03:38:28;;;;;;;4.53;3.72;;;;;26.40;101143.00;;;;5084735;28;20285;-75
2023/06/18 03:40:55;;;;;;;4.38;3.97;;;;;26.40;101146.00;;;;5089621;28;20248;-75
2023/06/18 03:43:22;;;;;;;4.32;3.78;;;;;26.40;101151.00;;;;5087955;28;20201;-75
2023/06/18 03:45:51;;;;;;;4.78;3.97;;;;;26.40;101159.00;;;;5087432;28;20279;-75
2023/06/18 03:48:18;;;;;;;6.30;4.05;;;;;26.40;101160.00;;;;5087393;28;20206;-76
2023/06/18 03:50:46;;;;;;;7.13;3.88;;;;;26.40;101157.00;;;;5085905;28;20222;-75
2023/06/18 03:53:13;;;;;;;5.63;4.03;;;;;26.40;101160.00;;;;5089348;28;20194;-75
2023/06/18 03:55:41;;;;;;;4.65;4.18;;;;;26.40;101159.00;;;;5076925;28;20230;-75
2023/06/18 03:58:08;;;;;;;4.30;3.65;;;;;26.40;101162.00;;;;5087687;28;20598;-75
2023/06/18 04:00:36;;;;;;;5.35;4.28;;;;;26.40;101155.00;;;;5086225;28;20202;-75
2023/06/18 04:03:05;;;;;;;5.38;3.65;;;;;26.40;101160.00;;;;5088501;28;20195;-75
2023/06/18 04:05:32;;;;;;;4.18;3.58;;;;;26.40;101156.00;;;;5087838;28;20222;-75
2023/06/18 04:08:00;;;;;;;5.20;3.65;;;;;26.40;101155.00;;;;5089035;28;20222;-75
2023/06/18 04:10:27;;;;;;;4.88;3.75;;;;;26.40;101155.00;;;;5088603;28;20224;-75
2023/06/18 04:12:54;;;;;;;4.03;3.42;;;;;26.40;101154.00;;;;5081967;28;20206;-75
2023/06/18 04:15:22;;;;;;;7.43;4.13;;;;;26.40;101161.00;;;;5086812;28;20190;-76
2023/06/18 04:17:49;;;;;;;5.40;3.95;;;;;26.40;101163.00;;;;5087156;28;20734;-75
2023/06/18 04:20:18;;;;;;;6.40;3.75;;;;;26.30;101160.00;;;;5087886;28;20992;-75
2023/06/18 04:22:45;;;;;;;4.93;3.80;;;;;26.30;101160.00;;;;5087682;28;20301;-75
2023/06/18 04:25:12;;;;;;;5.47;3.72;;;;;26.30;101170.00;;;;5088537;28;20198;-75
2023/06/18 04:27:40;;;;;;;4.32;3.70;;;;;26.40;101164.00;;;;5086401;28;20194;-75
2023/06/18 04:30:09;;;;;;;4.72;3.75;;;;;26.40;101168.00;;;;5068684;28;21036;-75
2023/06/18 04:32:36;;;;;;;4.38;3.85;;;;;26.40;101168.00;;;;5068203;28;20241;-76
2023/06/18 04:35:04;;;;;;;4.78;3.47;;;;;26.30;101164.00;;;;5082937;28;20202;-75
2023/06/18 04:37:32;;;;;;;8.07;4.25;;;;;26.30;101165.00;;;;5087722;28;20198;-75
2023/06/18 04:40:00;;;;;;;3.58;3.20;;;;;26.30;101169.00;;;;5088597;28;20198;-76
2023/06/18 04:42:27;;;;;;;3.67;3.38;;;;;26.40;101176.00;;;;5086760;28;20194;-75
2023/06/18 04:44:55;;;;;;;3.97;3.58;;;;;26.40;101174.00;;;;5087320;28;20206;-75
2023/06/18 04:47:22;;;;;;;4.45;3.80;;;;;26.40;101169.00;;;;5085807;28;20603;-75
2023/06/18 04:49:50;;;;;;;4.90;4.00;;;;;26.40;101174.00;;;;5086963;28;20218;-75
2023/06/18 04:52:17;;;;;;;4.32;3.00;;;;;26.40;101170.00;;;;5088928;28;20224;-75
2023/06/18 04:54:46;;;;;;;5.38;4.60;;;;;26.30;101168.00;;;;5086646;28;20198;-75
2023/06/18 04:57:13;;;;;;;5.07;4.18;;;;;26.40;101172.00;;;;5081587;28;20190;-75
2023/06/18 04:59:42;;;;;;;4.22;3.63;;;;;26.40;101170.00;;;;5078756;28;20194;-76
2023/06/18 05:02:09;;;;;;;7.80;4.00;;;;;26.40;101175.00;;;;5080209;28;20221;-75
2023/06/18 05:04:36;;;;;;;5.90;4.53;;;;;26.40;101172.00;;;;5087457;28;20202;-75
2023/06/18 05:07:04;;;;;;;3.50;3.08;;;;;26.40;101172.00;;;;5086774;28;20198;-74
2023/06/18 05:09:32;;;;;;;6.50;4.25;;;;;26.40;101167.00;;;;5084063;28;20225;-75
2023/06/18 05:12:00;;;;;;;7.28;4.47;;;;;26.40;101164.00;;;;5082505;28;20864;-75
2023/06/18 05:14:28;;;;;;;8.07;4.57;;;;;26.40;101172.00;;;;5085667;28;20195;-75
2023/06/18 05:16:56;;;;;;;5.47;4.32;;;;;26.40;101156.00;;;;5086444;28;20259;-74
2023/06/18 05:19:23;;;;;;;7.63;4.57;;;;;26.50;101164.00;;;;5082779;28;20210;-75
2023/06/18 05:21:50;;;;;;;6.60;4.72;;;;;26.50;101164.00;;;;5068236;28;20664;-75
2023/06/18 05:24:18;;;;;;;6.07;4.57;;;;;26.50;101161.00;;;;5080806;28;20210;-75
2023/06/18 05:26:45;;;;;;;9.93;4.95;;;;;26.50;101167.00;;;;5088204;28;20213;-75
2023/06/18 05:29:14;;;;;;;5.78;4.53;;;;;26.50;101169.00;;;;5083788;28;20198;-75
2023/06/18 05:31:41;;;;;;;5.32;4.82;;;;;26.60;101175.00;;;;5083575;28;20241;-76
2023/06/18 05:34:08;;;;;;;6.03;5.03;;;;;26.60;101173.00;;;;5087133;28;20202;-76
2023/06/18 05:36:37;;;;;;;7.65;4.63;;;;;26.70;101173.00;;;;5079917;28;20210;-78
2023/06/18 05:39:05;;;;;;;5.15;4.65;;;;;26.70;101180.00;;;;5081816;28;20233;-76
2023/06/18 05:41:32;;;;;;;5.22;4.50;;;;;26.80;101179.00;;;;5084810;28;20198;-76
2023/06/18 05:44:00;;;;;;;6.25;4.60;;;;;26.80;101177.00;;;;5084088;28;20191;-77
2023/06/18 05:46:29;;;;;;;6.13;5.00;;;;;26.80;101182.00;;;;5085611;28;20681;-76
2023/06/18 05:48:56;;;;;;;4.32;3.85;;;;;26.90;101185.00;;;;5082171;28;20217;-77
2023/06/18 05:51:23;;;;;;;6.03;4.75;;;;;26.90;101187.00;;;;5086641;28;20222;-77
2023/06/18 05:53:51;;;;;;;10.50;5.00;;;;;27.00;101190.00;;;;5088496;28;20187;-77
2023/06/18 05:56:18;;;;;;;5.10;4.25;;;;;27.00;101199.00;;;;5090880;28;20205;-77
2023/06/18 05:58:45;;;;;;;6.95;5.05;;;;;27.10;101191.00;;;;5087805;28;20201;-78
2023/06/18 06:01:13;;;;;;;6.70;5.45;;;;;27.10;101190.00;;;;5087623;28;20676;-77
2023/06/18 06:03:41;;;;;;;7.57;6.05;;;;;27.20;101185.00;;;;5086445;28;20198;-78
2023/06/18 06:06:09;;;;;;;8.00;5.20;;;;;27.30;101182.00;;;;5086547;28;20197;-76
2023/06/18 06:08:36;;;;;;;8.02;5.03;;;;;27.30;101172.00;;;;5084196;28;21021;-77
2023/06/18 06:11:04;;;;;;;7.70;5.88;;;;;27.40;101179.00;;;;5082535;28;20215;-78
2023/06/18 06:13:31;;;;;;;6.20;5.60;;;;;27.50;101180.00;;;;5081989;28;20214;-77
2023/06/18 06:15:59;;;;;;;7.78;6.07;;;;;27.60;101178.00;;;;5085992;28;20195;-76
2023/06/18 06:18:26;;;;;;;10.95;5.60;;;;;27.60;101183.00;;;;5084197;28;20225;-76
2023/06/18 06:20:55;;;;;;;8.13;5.80;;;;;27.70;101189.00;;;;5082692;28;20202;-78
2023/06/18 06:23:23;;;;;;;8.40;6.25;;;;;27.80;101184.00;;;;5082634;28;20210;-76
2023/06/18 06:25:50;;;;;;;7.38;6.10;;;;;27.90;101185.00;;;;5082056;28;20229;-76
2023/06/18 06:28:17;;;;;;;9.30;6.50;;;;;28.00;101177.00;;;;5083524;28;20190;-77
2023/06/18 06:30:45;;;;;;;6.43;5.80;;;;;28.10;101187.00;;;;5083497;28;20229;-77
2023/06/18 06:33:13;;;;;;;7.72;5.78;;;;;28.10;101180.00;;;;5080901;28;20202;-77
2023/06/18 06:35:40;;;;;;;8.45;5.82;;;;;28.20;101187.00;;;;5080138;28;20198;-77
2023/06/18 06:38:09;;;;;;;8.82;6.13;;;;;28.30;101190.00;;;;5082458;28;20194;-74
2023/06/18 06:40:36;;;;;;;9.18;6.18;;;;;28.40;101187.00;;;;5086163;28;20224;-78
2023/06/18 06:43:04;;;;;;;7.65;5.70;;;;;28.40;101188.00;;;;5087025;28;20193;-78
2023/06/18 06:45:31;;;;;;;8.77;6.05;;;;;28.50;101194.00;;;;5088336;28;20202;-78
2023/06/18 06:47:59;;;;;;;8.68;5.90;;;;;28.60;101197.00;;;;5087989;28;20194;-78
2023/06/18 06:50:26;;;;;;;8.95;6.75;;;;;28.60;101199.00;;;;5089630;28;20222;-78
2023/06/18 06:52:53;;;;;;;7.47;6.07;;;;;28.70;101196.00;;;;5089141;28;20201;-79
2023/06/18 06:55:22;;;;;;;9.55;6.35;;;;;28.70;101196.00;;;;5088097;28;20209;-76
2023/06/18 06:57:49;;;;;;;9.52;6.72;;;;;28.70;101197.00;;;;5083136;28;20220;-77
2023/06/18 07:00:17;;;;;;;9.52;6.18;;;;;28.80;101196.00;;;;5087933;28;20190;-78
2023/06/18 07:02:45;;;;;;;8.05;6.47;;;;;28.80;101195.00;;;;5087521;28;20203;-78
2023/06/18 07:05:12;;;;;;;12.10;6.35;;;;;28.80;101194.00;;;;5087315;28;20255;-77
2023/06/18 07:07:40;;;;;;;11.23;6.40;;;;;28.80;101198.00;;;;5088790;28;20218;-77
2023/06/18 07:10:08;;;;;;;7.55;6.53;;;;;28.80;101208.00;;;;5086070;28;20210;-77
2023/06/18 07:12:36;;;;;;;7.68;5.72;;;;;28.90;101219.00;;;;5086024;28;20581;-78
2023/06/18 07:15:04;;;;;;;8.43;5.63;;;;;28.90;101232.00;;;;5097322;28;20194;-77
2023/06/18 07:17:32;;;;;;;6.70;5.68;;;;;28.90;101259.00;;;;5088624;28;20289;-78
2023/06/18 07:19:59;;;;;;;7.63;6.57;;;;;28.90;101250.00;;;;5083718;28;20632;-77
2023/06/18 07:22:26;;;;;;;6.95;5.35;;;;;28.80;101232.00;;;;5086694;28;20674;-77
2023/06/18 07:24:56;;;;;;;10.05;6.90;;;;;28.80;101221.00;;;;5089588;28;20647;-78
2023/06/18 07:27:24;;;;;;;7.80;6.30;;;;;28.80;101227.00;;;;5086305;28;20629;-78
2023/06/18 07:29:55;;;;;;;8.02;5.60;;;;;28.80;101246.00;;;;5083966;28;20198;-78
2023/06/18 07:32:23;;;;;;;7.38;6.53;;;;;28.80;101237.00;;;;5086825;28;20683;-77
2023/06/18 07:34:51;;;;;;;6.88;5.97;;;;;28.90;101232.00;;;;5085030;28;20202;-77
2023/06/18 07:37:18;;;;;;;11.25;5.80;;;;;28.90;101227.00;;;;5087845;28;20210;-77
2023/06/18 07:39:45;;;;;;;6.93;5.88;;;;;28.90;101231.00;;;;5086499;28;20198;-78
2023/06/18 07:42:13;;;;;;;8.07;6.53;;;;;29.00;101225.00;;;;5086342;28;20205;-78
2023/06/18 07:44:40;;;;;;;8.68;6.95;;;;;29.00;101224.00;;;;5088443;28;20284;-78
2023/06/18 07:47:09;;;;;;;10.23;6.43;;;;;29.00;101212.00;;;;5087621;28;20198;-77
2023/06/18 07:49:36;;;;;;;7.70;6.43;;;;;29.10;101222.00;;;;5087677;28;20205;-77
2023/06/18 07:52:04;;;;;;;7.55;6.20;;;;;29.10;101222.00;;;;5083028;28;20226;-77
2023/06/18 07:54:34;;;;;;;8.75;6.30;;;;;29.20;101223.00;;;;5083410;28;20202;-77
2023/06/18 07:57:01;;;;;;;7.25;5.25;;;;;29.30;101224.00;;;;5087112;28;20566;-77
2023/06/18 07:59:29;;;;;;;8.07;6.47;;;;;29.30;101230.00;;;;5087112;28;20186;-77
2023/06/18 08:01:57;;;;;;;7.53;5.80;;;;;29.30;101224.00;;;;5086786;28;20187;-77
2023/06/18 08:04:26;;;;;;;8.52;6.40;;;;;29.40;101227.00;;;;5085871;28;20190;-77
2023/06/18 08:06:53;;;;;;;6.70;5.93;;;;;29.50;101224.00;;;;5086702;28;20567;-75
2023/06/18 08:09:20;;;;;;;8.63;6.13;;;;;29.50;101222.00;;;;5086602;28;20202;-76
2023/06/18 08:11:49;;;;;;;10.05;6.68;;;;;29.60;101213.00;;;;5084184;28;20242;-75
2023/06/18 08:14:16;;;;;;;7.18;6.32;;;;;29.60;101214.00;;;;5085359;28;20679;-76
2023/06/18 08:16:43;;;;;;;8.25;6.25;;;;;29.70;101203.00;;;;5087007;28;20199;-77
2023/06/18 08:19:11;;;;;;;7.35;6.45;;;;;29.70;101206.00;;;;5081259;28;20202;-76
2023/06/18 08:21:39;;;;;;;7.93;6.47;;;;;29.80;101212.00;;;;5076309;28;20202;-76
2023/06/18 08:24:09;;;;;;;7.47;5.78;;;;;29.80;101202.00;;;;5085664;28;20206;-77
2023/06/18 08:26:36;;;;;;;7.55;6.18;;;;;29.90;101202.00;;;;5078537;28;20282;-76
2023/06/18 08:29:04;;;;;;;6.68;5.75;;;;;30.00;101208.00;;;;5088492;28;20197;-76
2023/06/18 08:31:31;;;;;;;7.18;6.07;;;;;30.00;101203.00;;;;5087170;28;20233;-76
2023/06/18 08:33:58;;;;;;;5.80;5.20;;;;;30.10;101191.00;;;;5086688;28;20190;-76
2023/06/18 08:36:25;;;;;;;8.35;6.28;;;;;30.10;101191.00;;;;5086354;28;20202;-77
2023/06/18 08:38:54;;;;;;;9.25;6.65;;;;;30.20;101195.00;;;;5084495;28;20198;-76
2023/06/18 08:41:22;;;;;;;11.90;6.13;;;;;30.20;101201.00;;;;5085319;28;20190;-76
2023/06/18 08:43:49;;;;;;;7.18;6.13;;;;;30.30;101203.00;;;;5077088;28;20332;-76
2023/06/18 08:46:17;;;;;;;8.25;6.90;;;;;30.30;101201.00;;;;5080241;28;20193;-78
2023/06/18 08:48:56;;;;;;;7.78;5.38;;;;;30.40;101199.00;;;;5083699;28;20213;-77
2023/06/18 08:51:23;;;;;;;7.55;6.05;;;;;30.40;101198.00;;;;5086542;28;20261;-79
2023/06/18 08:53:56;;;;;;;5.80;4.70;;;;;30.50;101204.00;;;;5087289;28;20206;-78
2023/06/18 08:56:24;;;;;;;6.18;4.85;;;;;30.50;101195.00;;;;5082107;28;20284;-80
2023/06/18 08:58:55;;;;;;;5.90;5.28;;;;;30.60;101197.00;;;;5080391;28;20317;-79
2023/06/18 09:01:23;;;;;;;6.75;4.82;;;;;30.60;101195.00;;;;5074381;28;20218;-79
2023/06/18 09:03:52;;;;;;;7.30;5.05;;;;;30.70;101202.00;;;;5082441;28;20205;-81
2023/06/18 09:06:20;;;;;;;9.20;5.30;;;;;30.80;101201.00;;;;5080214;28;20202;-80
2023/06/18 09:08:48;;;;;;;5.45;4.82;;;;;30.90;101195.00;;;;5079931;28;20841;-80
2023/06/18 09:11:17;;;;;;;10.18;5.25;;;;;30.90;101200.00;;;;5079754;28;20222;-80
2023/06/18 09:13:45;;;;;;;6.88;5.63;;;;;31.00;101197.00;;;;5081320;28;20198;-80
2023/06/18 09:16:13;;;;;;;5.28;4.60;;;;;31.10;101196.00;;;;5086483;28;20205;-79
2023/06/18 09:18:40;;;;;;;6.55;5.15;;;;;31.20;101193.00;;;;5082973;28;20386;-79
2023/06/18 09:21:08;;;;;;;5.38;4.90;;;;;31.30;101200.00;;;;5083685;28;21678;-79
2023/06/18 09:23:35;;;;;;;8.48;4.80;;;;;31.40;101194.00;;;;5081377;28;20209;-80
2023/06/18 09:26:03;;;;;;;5.55;4.90;;;;;31.50;101194.00;;;;5089812;28;20202;-81
2023/06/18 09:28:32;;;;;;;8.35;5.72;;;;;31.50;101187.00;;;;5090666;28;20195;-79
2023/06/18 09:31:01;;;;;;;5.63;5.05;;;;;31.60;101192.00;;;;5088187;28;20571;-80
2023/06/18 09:33:30;;;;;;;7.53;5.55;;;;;31.70;101189.00;;;;5088256;28;20568;-80
2023/06/18 09:36:02;;;;;;;6.00;5.40;;;;;31.70;101183.00;;;;5084866;28;20202;-80
2023/06/18 09:38:39;;;;;;;5.90;5.00;;;;;31.70;101183.00;;;;5090226;28;20194;-80
2023/06/18 09:41:13;;;;;;;7.22;4.75;;;;;31.80;101191.00;;;;5090037;28;20285;-80
2023/06/18 09:43:45;;;;;;;5.05;4.38;;;;;31.90;101183.00;;;;5090975;28;20194;-81
2023/06/18 09:46:13;;;;;;;5.30;4.80;;;;;31.90;101183.00;;;;5090148;28;20198;-80
2023/06/18 09:48:42;;;;;;;4.90;4.43;;;;;32.00;101187.00;;;;5089242;28;20195;-79
2023/06/18 09:51:10;;;;;;;5.45;4.75;;;;;32.10;101182.00;;;;5097542;28;20230;-79
2023/06/18 09:53:38;;;;;;;6.25;4.97;;;;;32.10;101174.00;;;;5071208;28;20194;-80
2023/06/18 09:56:10;;;;;;;6.60;5.78;;;;;32.10;101183.00;;;;5086998;28;20205;-80
2023/06/18 09:58:43;;;;;;;8.85;6.15;;;;;32.10;101180.00;;;;5088056;28;20236;-80
2023/06/18 10:01:11;;;;;;;8.38;5.80;;;;;32.20;101180.00;;;;5083170;28;20206;-81
2023/06/18 10:03:40;;;;;;;5.72;5.13;;;;;32.20;101182.00;;;;5086227;28;20202;-80
2023/06/18 10:06:18;;;;;;;7.60;5.55;;;;;32.20;101173.00;;;;5090250;28;20209;-80
2023/06/18 10:08:47;;;;;;;5.68;4.70;;;;;32.30;101180.00;;;;5083220;28;20226;-80
2023/06/18 10:11:15;;;;;;;4.80;4.30;;;;;32.30;101188.00;;;;5088128;28;20567;-80
2023/06/18 10:13:48;;;;;;;7.20;5.32;;;;;32.20;101187.00;;;;5084756;28;20197;-81
2023/06/18 10:16:20;;;;;;;5.78;5.28;;;;;32.30;101187.00;;;;5089230;28;20213;-80
2023/06/18 10:18:56;;;;;;;5.78;4.90;;;;;32.20;101183.00;;;;5080580;28;20275;-79
2023/06/18 10:21:25;;;;;;;5.55;5.00;;;;;32.20;101188.00;;;;5087856;28;20190;-81
2023/06/18 10:23:57;;;;;;;4.88;4.45;;;;;32.10;101181.00;;;;5087980;28;20283;-80
2023/06/18 10:26:25;;;;;;;7.28;5.40;;;;;32.10;101179.00;;;;5086858;28;20194;-80
2023/06/18 10:28:54;;;;;;;6.22;5.05;;;;;32.10;101176.00;;;;5088028;28;20194;-80
2023/06/18 10:31:21;;;;;;;6.05;5.20;;;;;32.00;101179.00;;;;5087803;28;20229;-80
2023/06/18 10:33:49;;;;;;;5.45;4.95;;;;;32.00;101175.00;;;;5089214;28;20212;-80
2023/06/18 10:36:17;;;;;;;6.10;5.15;;;;;31.90;101169.00;;;;5089138;28;20202;-81
2023/06/18 10:38:45;;;;;;;7.57;5.55;;;;;31.90;101177.00;;;;5085112;28;20552;-79
2023/06/18 10:41:14;;;;;;;6.90;4.10;;;;;31.90;101178.00;;;;5080231;28;20202;-79
2023/06/18 10:43:42;;;;;;;5.65;4.72;;;;;31.80;101169.00;;;;5083593;28;20199;-78
2023/06/18 10:46:12;;;;;;;5.30;4.80;;;;;31.80;101174.00;;;;5089755;28;20230;-79
2023/06/18 10:48:41;;;;;;;6.68;4.80;;;;;31.80;101177.00;;;;5090458;28;20209;-79
2023/06/18 10:51:16;;;;;;;5.47;4.97;;;;;31.70;101168.00;;;;5087772;28;20202;-79
2023/06/18 10:53:44;;;;;;;6.03;5.28;;;;;31.70;101175.00;;;;5088323;28;20201;-79
2023/06/18 10:56:14;;;;;;;6.82;5.40;;;;;31.60;101177.00;;;;5082960;28;20198;-79
2023/06/18 10:58:42;;;;;;;5.22;4.53;;;;;31.60;101172.00;;;;5089498;28;20198;-79
2023/06/18 11:01:27;;;;;;;4.93;4.40;;;;;31.50;101164.00;;;;5083084;28;20201;-79
2023/06/18 11:04:06;;;;;;;7.05;5.20;;;;;31.50;101166.00;;;;5086983;28;20655;-80
2023/06/18 11:06:34;;;;;;;5.55;4.85;;;;;31.50;101164.00;;;;5087491;28;20248;-78
2023/06/18 11:09:01;;;;;;;5.95;5.35;;;;;31.50;101171.00;;;;5083454;28;20210;-78
2023/06/18 11:11:33;;;;;;;6.75;4.97;;;;;31.40;101164.00;;;;5086619;28;20202;-80
2023/06/18 11:14:20;;;;;;;6.13;4.82;;;;;31.30;101160.00;;;;5086958;28;20198;-80
2023/06/18 11:17:10;;;;;;;7.03;4.65;;;;;31.40;101156.00;;;;5080279;28;20195;-81
2023/06/18 11:19:38;;;;;;;4.38;3.95;;;;;31.50;101149.00;;;;5089195;28;20346;-82
2023/06/18 11:22:06;;;;;;;5.95;5.35;;;;;31.40;101146.00;;;;5087529;28;20778;-79
2023/06/18 11:24:34;;;;;;;5.60;4.70;;;;;31.40;101148.00;;;;5084979;28;20741;-79
2023/06/18 11:27:02;;;;;;;7.10;5.22;;;;;31.40;101142.00;;;;5082420;28;20197;-79
2023/06/18 11:29:32;;;;;;;6.05;5.45;;;;;31.40;101138.00;;;;5087200;28;20194;-80
2023/06/18 11:32:00;;;;;;;6.95;5.55;;;;;31.40;101135.00;;;;5086443;28;20588;-80
2023/06/18 11:34:29;;;;;;;8.23;5.75;;;;;31.40;101131.00;;;;5084484;28;20206;-80
2023/06/18 11:36:57;;;;;;;6.18;5.57;;;;;31.50;101131.00;;;;5086247;28;20203;-80
2023/06/18 11:39:25;;;;;;;5.45;4.95;;;;;31.50;101135.00;;;;5081461;28;20191;-80
2023/06/18 11:41:53;;;;;;;9.70;5.22;;;;;31.50;101132.00;;;;5080553;28;20285;-80
2023/06/18 11:44:26;;;;;;;5.70;5.20;;;;;31.40;101135.00;;;;5088937;28;20200;-79
2023/06/18 11:46:53;;;;;;;5.57;4.57;;;;;31.50;101130.00;;;;5089778;28;20206;-80
2023/06/18 11:49:21;;;;;;;5.20;4.80;;;;;31.50;101135.00;;;;5089212;28;20190;-80
2023/06/18 11:51:50;;;;;;;6.53;4.97;;;;;31.40;101137.00;;;;5088444;28;20222;-80
2023/06/18 11:54:17;;;;;;;5.85;5.35;;;;;31.40;101138.00;;;;5089000;28;20198;-80
2023/06/18 11:56:45;;;;;;;8.18;5.15;;;;;31.40;101129.00;;;;5084809;28;20198;-79
2023/06/18 11:59:13;;;;;;;6.22;5.63;;;;;31.40;101120.00;;;;5087952;28;20251;-80
2023/06/18 12:01:41;;;;;;;4.85;4.32;;;;;31.40;101122.00;;;;5089278;28;20214;-80
2023/06/18 12:04:09;;;;;;;6.50;5.13;;;;;31.40;101123.00;;;;5088977;28;20786;-80
2023/06/18 12:06:38;;;;;;;5.13;4.63;;;;;31.50;101115.00;;;;5088253;28;20205;-80
2023/06/18 12:09:08;;;;;;;6.45;5.25;;;;;31.40;101107.00;;;;5069830;28;20215;-80
2023/06/18 12:11:47;;;;;;;5.72;5.10;;;;;31.40;101120.00;;;;5083458;28;20965;-80
2023/06/18 12:14:20;;;;;;;5.18;4.57;;;;;31.50;101122.00;;;;5088968;28;20201;-81
2023/06/18 12:16:52;;;;;;;4.15;3.80;;;;;31.50;101115.00;;;;5087756;28;20194;-80